createdAt,value
2023-01-24T00:01:19.941Z,19.87
2023-01-24T00:03:48.179Z,19.40
2023-01-24T00:06:16.876Z,18.67
2023-01-24T00:08:45.238Z,18.63
2023-01-24T00:11:14.690Z,20.23
2023-01-24T00:13:43.314Z,17.27
2023-01-24T00:16:15.912Z,18.47
2023-01-24T00:18:44.651Z,18.97
2023-01-24T00:21:14.385Z,19.50
2023-01-24T00:23:43.841Z,20.83
2023-01-24T00:26:12.568Z,19.70
2023-01-24T00:28:41.316Z,19.43
2023-01-24T00:31:09.826Z,19.63
2023-01-24T00:33:39.356Z,19.27
2023-01-24T00:36:08.574Z,19.80
2023-01-24T00:38:36.709Z,19.93
2023-01-24T00:41:04.886Z,20.03
2023-01-24T00:43:33.124Z,19.13
2023-01-24T00:46:01.418Z,19.83
2023-01-24T00:48:29.497Z,20.30
2023-01-24T00:50:59.056Z,19.93
2023-01-24T00:53:27.569Z,19.83
2023-01-24T00:55:56.754Z,19.23
2023-01-24T00:58:25.335Z,20.40
2023-01-24T01:00:57.615Z,22.00
2023-01-24T01:03:25.777Z,19.40
2023-01-24T01:06:01.355Z,19.07
2023-01-24T01:08:29.463Z,19.63
2023-01-24T01:10:57.601Z,19.67
2023-01-24T01:13:26.342Z,20.27
2023-01-24T01:16:02.770Z,20.40
2023-01-24T01:18:31.106Z,20.43
2023-01-24T01:21:00.587Z,19.90
2023-01-24T01:23:28.812Z,20.13
2023-01-24T01:26:01.444Z,19.73
2023-01-24T01:28:29.584Z,20.90
2023-01-24T01:30:58.567Z,19.17
2023-01-24T01:33:27.329Z,19.77
2023-01-24T01:35:55.537Z,19.37
2023-01-24T01:38:29.041Z,18.53
2023-01-24T01:40:57.726Z,18.93
2023-01-24T01:43:27.349Z,18.00
2023-01-24T01:45:56.518Z,18.43
2023-01-24T01:48:30.689Z,18.67
2023-01-24T01:51:08.577Z,19.27
2023-01-24T01:53:43.534Z,19.90
2023-01-24T01:56:18.185Z,18.20
2023-01-24T01:58:46.384Z,18.40
2023-01-24T02:01:14.800Z,19.03
2023-01-24T02:03:48.645Z,18.10
2023-01-24T02:06:32.113Z,18.40
2023-01-24T02:09:04.795Z,19.00
2023-01-24T02:11:42.011Z,18.87
2023-01-24T02:14:30.423Z,18.77
2023-01-24T02:16:58.963Z,17.73
2023-01-24T02:19:44.500Z,18.13
2023-01-24T02:22:19.278Z,18.27
2023-01-24T02:24:59.726Z,18.10
2023-01-24T02:27:29.403Z,17.10
2023-01-24T02:29:59.128Z,18.20
2023-01-24T02:32:27.926Z,17.67
2023-01-24T02:34:56.115Z,16.60
2023-01-24T02:37:24.193Z,17.80
2023-01-24T02:39:57.031Z,16.50
2023-01-24T02:42:31.655Z,16.37
2023-01-24T02:45:06.295Z,15.90
2023-01-24T02:47:42.878Z,16.23
2023-01-24T02:50:11.962Z,12.83
2023-01-24T02:52:57.738Z,15.40
2023-01-24T02:55:27.443Z,16.73
2023-01-24T02:58:08.456Z,15.80
2023-01-24T03:00:37.917Z,16.17
2023-01-24T03:03:06.613Z,17.00
2023-01-24T03:05:57.813Z,16.30
2023-01-24T03:08:27.141Z,16.20
2023-01-24T03:11:14.154Z,16.17
2023-01-24T03:14:01.035Z,17.40
2023-01-24T03:16:46.593Z,17.10
2023-01-24T03:19:32.264Z,15.63
2023-01-24T03:22:17.796Z,15.77
2023-01-24T03:25:03.418Z,15.80
2023-01-24T03:27:49.147Z,14.03
2023-01-24T03:30:36.235Z,16.53
2023-01-24T03:33:22.653Z,16.27
2023-01-24T03:35:55.518Z,19.57
2023-01-24T03:38:41.759Z,18.10
2023-01-24T03:41:09.976Z,18.93
2023-01-24T03:43:38.069Z,19.47
2023-01-24T03:46:07.630Z,18.50
2023-01-24T03:48:37.475Z,19.93
2023-01-24T03:51:24.222Z,19.53
2023-01-24T03:53:52.668Z,19.47
2023-01-24T03:56:20.706Z,18.03
2023-01-24T03:58:48.802Z,18.37
2023-01-24T04:01:18.436Z,17.73
2023-01-24T04:03:46.598Z,16.77
2023-01-24T04:06:14.708Z,17.63
2023-01-24T04:08:42.976Z,19.20
2023-01-24T04:11:11.062Z,17.50
2023-01-24T04:13:39.137Z,17.03
2023-01-24T04:16:09.765Z,17.43
2023-01-24T04:18:39.488Z,16.63
2023-01-24T04:21:08.118Z,17.50
2023-01-24T04:23:36.202Z,17.83
2023-01-24T04:26:04.396Z,17.30
2023-01-24T04:28:33.510Z,16.73
2023-01-24T04:31:03.339Z,17.10
2023-01-24T04:33:31.465Z,16.60
2023-01-24T04:36:01.198Z,17.30
2023-01-24T04:38:29.247Z,17.47
2023-01-24T04:41:01.644Z,17.33
2023-01-24T04:43:29.883Z,16.93
2023-01-24T04:45:58.738Z,18.97
2023-01-24T04:48:26.979Z,17.53
2023-01-24T04:51:01.528Z,17.10
2023-01-24T04:53:30.791Z,18.67
2023-01-24T04:56:02.336Z,15.40
2023-01-24T04:58:30.643Z,18.10
2023-01-24T05:00:59.642Z,18.30
2023-01-24T05:03:28.817Z,17.90
2023-01-24T05:05:57.523Z,18.80
2023-01-24T05:08:27.555Z,18.33
2023-01-24T05:10:55.941Z,17.20
2023-01-24T05:13:24.195Z,15.53
2023-01-24T05:15:53.765Z,16.60
2023-01-24T05:18:21.912Z,16.97
2023-01-24T05:20:50.004Z,17.80
2023-01-24T05:23:18.648Z,17.20
2023-01-24T05:25:48.299Z,17.27
2023-01-24T05:28:16.352Z,19.10
2023-01-24T05:30:44.379Z,16.77
2023-01-24T05:33:12.605Z,15.90
2023-01-24T05:35:41.884Z,17.27
2023-01-24T05:38:10.017Z,17.77
2023-01-24T05:40:38.156Z,16.77
2023-01-24T05:43:07.961Z,16.13
2023-01-24T05:45:36.071Z,18.53
2023-01-24T05:48:04.188Z,18.40
2023-01-24T05:50:32.372Z,16.33
2023-01-24T05:53:03.671Z,16.20
2023-01-24T05:55:32.076Z,16.80
2023-01-24T05:58:00.796Z,16.40
2023-01-24T06:00:30.611Z,15.97
2023-01-24T06:03:04.157Z,15.57
2023-01-24T06:05:32.349Z,18.57
2023-01-24T06:08:00.459Z,17.27
2023-01-24T06:10:28.591Z,17.33
2023-01-24T06:12:56.804Z,17.40
2023-01-24T06:15:24.906Z,17.03
2023-01-24T06:17:58.661Z,17.17
2023-01-24T06:20:27.340Z,17.07
2023-01-24T06:22:59.202Z,17.77
2023-01-24T06:25:28.350Z,18.00
2023-01-24T06:27:57.150Z,18.47
2023-01-24T06:30:26.060Z,17.63
2023-01-24T06:33:19.361Z,19.70
2023-01-24T06:36:09.520Z,18.47
2023-01-24T06:38:38.444Z,18.07
2023-01-24T06:41:16.254Z,17.83
2023-01-24T06:43:45.749Z,15.30
2023-01-24T06:46:15.176Z,13.93
2023-01-24T06:48:46.699Z,14.33
2023-01-24T06:51:16.025Z,14.67
2023-01-24T06:53:44.177Z,15.97
2023-01-24T06:56:12.838Z,17.13
2023-01-24T06:58:41.048Z,15.73
2023-01-24T07:01:09.182Z,17.47
2023-01-24T07:03:37.360Z,18.00
2023-01-24T07:06:07.496Z,19.07
2023-01-24T07:08:35.603Z,18.17
2023-01-24T07:11:03.692Z,18.90
2023-01-24T07:13:31.810Z,18.23
2023-01-24T07:16:02.805Z,16.90
2023-01-24T07:18:31.541Z,14.03
2023-01-24T07:21:00.140Z,14.47
2023-01-24T07:23:31.282Z,12.87
2023-01-24T07:25:59.848Z,14.17
2023-01-24T07:28:28.224Z,14.30
2023-01-24T07:30:56.454Z,14.57
2023-01-24T07:33:24.556Z,13.60
2023-01-24T07:35:52.750Z,14.47
2023-01-24T07:38:20.887Z,18.70
2023-01-24T07:40:50.655Z,89.43
2023-01-24T07:43:19.822Z,18.50
2023-01-24T07:45:49.549Z,14.70
2023-01-24T07:48:19.213Z,15.37
2023-01-24T07:50:47.326Z,14.40
2023-01-24T07:53:15.399Z,12.93
2023-01-24T07:55:53.002Z,11.67
2023-01-24T07:58:30.903Z,12.00
2023-01-24T08:00:59.508Z,12.63
2023-01-24T08:03:27.899Z,10.47
2023-01-24T08:05:56.203Z,11.40
2023-01-24T08:08:24.460Z,13.67
2023-01-24T08:10:52.659Z,12.07
2023-01-24T08:13:20.793Z,12.87
2023-01-24T08:15:50.477Z,14.17
2023-01-24T08:18:19.092Z,13.33
2023-01-24T08:20:47.574Z,12.67
2023-01-24T08:23:15.660Z,12.13
2023-01-24T08:25:46.687Z,12.70
2023-01-24T08:28:14.823Z,12.33
2023-01-24T08:30:43.141Z,13.43
2023-01-24T08:33:19.867Z,13.07
2023-01-24T08:35:48.583Z,13.50
2023-01-24T08:38:18.140Z,11.47
2023-01-24T08:40:49.940Z,12.37
2023-01-24T08:43:19.371Z,9.60
2023-01-24T08:45:47.657Z,10.07
2023-01-24T08:48:17.365Z,11.93
2023-01-24T08:50:45.698Z,9.83
2023-01-24T08:53:13.975Z,11.20
2023-01-24T08:55:42.387Z,11.07
2023-01-24T08:58:10.459Z,10.83
2023-01-24T09:00:38.611Z,9.70
2023-01-24T09:03:06.744Z,9.80
2023-01-24T09:05:37.862Z,10.30
2023-01-24T09:08:07.003Z,11.47
2023-01-24T09:10:35.171Z,10.13
2023-01-24T09:13:04.404Z,11.63
2023-01-24T09:15:33.244Z,12.00
2023-01-24T09:18:03.251Z,11.00
2023-01-24T09:20:31.453Z,10.13
2023-01-24T09:23:00.994Z,11.73
2023-01-24T09:25:31.719Z,10.67
2023-01-24T09:27:59.819Z,10.90
2023-01-24T09:30:28.201Z,10.13
2023-01-24T09:32:57.594Z,8.70
2023-01-24T09:35:25.772Z,9.67
2023-01-24T09:37:54.523Z,9.93
2023-01-24T09:40:27.715Z,10.83
2023-01-24T09:43:06.361Z,8.90
2023-01-24T09:45:39.451Z,9.20
2023-01-24T09:48:13.094Z,9.77
2023-01-24T09:50:45.734Z,8.87
2023-01-24T09:53:21.145Z,7.13
2023-01-24T09:55:51.444Z,7.83
2023-01-24T09:58:34.180Z,7.90
2023-01-24T10:01:06.378Z,8.57
2023-01-24T10:03:35.994Z,10.03
2023-01-24T10:06:13.539Z,7.47
2023-01-24T10:08:51.783Z,7.07
2023-01-24T10:11:35.397Z,7.87
2023-01-24T10:14:34.324Z,7.50
2023-01-24T10:17:40.809Z,7.50
2023-01-24T10:20:19.338Z,7.10
2023-01-24T10:23:05.513Z,7.17
2023-01-24T10:25:42.677Z,6.83
2023-01-24T10:28:21.040Z,7.37
2023-01-24T10:30:55.880Z,6.20
2023-01-24T10:33:30.269Z,7.30
2023-01-24T10:36:01.179Z,7.50
2023-01-24T10:38:30.747Z,7.17
2023-01-24T10:41:12.312Z,7.60
2023-01-24T10:43:44.373Z,7.00
2023-01-24T10:46:28.361Z,6.67
2023-01-24T10:48:59.818Z,6.63
2023-01-24T10:51:27.855Z,6.37
2023-01-24T10:54:03.510Z,7.13
2023-01-24T10:56:32.385Z,8.00
2023-01-24T10:59:06.922Z,8.57
2023-01-24T11:01:38.425Z,10.37
2023-01-24T11:04:17.581Z,9.10
2023-01-24T11:06:48.380Z,8.10
2023-01-24T11:09:21.192Z,7.47
2023-01-24T11:11:52.596Z,8.67
2023-01-24T11:14:23.746Z,8.27
2023-01-24T11:16:54.809Z,8.70
2023-01-24T11:19:28.688Z,8.07
2023-01-24T11:21:58.964Z,7.00
2023-01-24T11:24:27.999Z,6.97
2023-01-24T11:27:00.078Z,6.27
2023-01-24T11:29:29.571Z,6.60
2023-01-24T11:32:03.850Z,6.63
2023-01-24T11:34:45.753Z,7.23
2023-01-24T11:37:36.125Z,6.23
2023-01-24T11:40:21.744Z,7.60
2023-01-24T11:43:03.718Z,4.93
2023-01-24T11:45:51.800Z,6.23
2023-01-24T11:48:22.041Z,5.00
2023-01-24T11:51:13.294Z,6.37
2023-01-24T11:54:04.986Z,7.33
2023-01-24T11:56:45.302Z,7.87
2023-01-24T11:59:39.599Z,5.90
2023-01-24T12:02:43.006Z,6.63
2023-01-24T12:05:40.146Z,6.10
2023-01-24T12:08:26.312Z,6.47
2023-01-24T12:11:22.728Z,5.87
2023-01-24T12:14:09.297Z,6.70
2023-01-24T12:16:49.822Z,6.63
2023-01-24T12:19:43.572Z,6.70
2023-01-24T12:22:17.275Z,6.93
2023-01-24T12:24:53.471Z,6.93
2023-01-24T12:27:25.643Z,8.80
2023-01-24T12:30:00.777Z,7.67
2023-01-24T12:32:37.125Z,7.90
2023-01-24T12:35:22.777Z,7.60
2023-01-24T12:38:07.739Z,6.33
2023-01-24T12:40:48.738Z,6.33
2023-01-24T12:43:25.394Z,6.47
2023-01-24T12:46:03.855Z,8.60
2023-01-24T12:48:41.050Z,8.33
2023-01-24T12:51:19.173Z,7.33
2023-01-24T12:54:01.890Z,6.70
2023-01-24T12:56:47.313Z,7.30
2023-01-24T12:59:19.017Z,6.53
2023-01-24T13:02:24.075Z,7.87
2023-01-24T13:05:00.153Z,7.70
2023-01-24T13:07:38.200Z,8.23
2023-01-24T13:10:16.089Z,8.00
2023-01-24T13:12:47.293Z,8.67
2023-01-24T13:15:23.051Z,8.70
2023-01-24T13:18:17.218Z,7.27
2023-01-24T13:21:07.540Z,9.30
2023-01-24T13:23:48.841Z,7.87
2023-01-24T13:27:00.059Z,7.20
2023-01-24T13:29:46.490Z,7.60
2023-01-24T13:32:17.852Z,8.43
2023-01-24T13:34:49.809Z,7.70
2023-01-24T13:37:25.968Z,6.27
2023-01-24T13:40:05.429Z,7.93
2023-01-24T13:42:39.644Z,7.90
2023-01-24T13:45:45.210Z,9.10
2023-01-24T13:49:01.804Z,8.43
2023-01-24T13:51:35.216Z,8.27
2023-01-24T13:54:05.935Z,9.40
2023-01-24T13:57:28.835Z,10.87
2023-01-24T14:00:10.081Z,8.50
2023-01-24T14:02:44.119Z,11.20
2023-01-24T14:05:42.442Z,9.00
2023-01-24T14:08:33.353Z,10.50
2023-01-24T14:11:41.244Z,17.43
2023-01-24T14:14:29.915Z,9.70
2023-01-24T14:17:01.714Z,9.80
2023-01-24T14:19:39.798Z,9.37
2023-01-24T14:22:22.064Z,11.83
2023-01-24T14:25:06.560Z,11.30
2023-01-24T14:27:39.777Z,17.23
2023-01-24T14:30:32.182Z,26.13
2023-01-24T14:33:06.928Z,13.13
2023-01-24T14:35:49.974Z,10.30
2023-01-24T14:38:19.590Z,9.93
2023-01-24T14:40:52.043Z,12.67
2023-01-24T14:43:25.399Z,12.37
2023-01-24T14:45:53.896Z,9.00
2023-01-24T14:48:25.680Z,10.47
2023-01-24T14:51:05.616Z,9.13
2023-01-24T14:53:34.087Z,11.37
2023-01-24T14:56:04.500Z,9.40
2023-01-24T14:58:34.150Z,9.97
2023-01-24T15:01:03.963Z,8.37
2023-01-24T15:03:34.432Z,9.73
2023-01-24T15:06:05.443Z,7.60
2023-01-24T15:08:35.197Z,8.60
2023-01-24T15:11:06.572Z,10.20
2023-01-24T15:13:38.879Z,13.47
2023-01-24T15:16:08.106Z,9.90
2023-01-24T15:18:54.965Z,9.03
2023-01-24T15:21:30.751Z,8.70
2023-01-24T15:23:59.387Z,9.13
2023-01-24T15:26:38.053Z,13.13
2023-01-24T15:29:43.051Z,10.07
2023-01-24T15:32:44.212Z,9.33
2023-01-24T15:35:33.786Z,10.20
2023-01-24T15:38:22.022Z,10.30
2023-01-24T15:41:13.000Z,10.60
2023-01-24T15:43:48.578Z,10.13
2023-01-24T15:46:41.965Z,10.63
2023-01-24T15:49:35.932Z,12.13
2023-01-24T15:52:23.012Z,11.87
2023-01-24T15:54:58.622Z,11.27
2023-01-24T15:57:29.693Z,11.33
2023-01-24T16:00:02.341Z,9.97
2023-01-24T16:02:32.101Z,9.47
2023-01-24T16:05:00.619Z,10.73
2023-01-24T16:07:28.767Z,12.30
2023-01-24T16:09:56.911Z,11.03
2023-01-24T16:12:26.519Z,11.73
2023-01-24T16:15:12.923Z,12.57
2023-01-24T16:17:42.544Z,12.20
2023-01-24T16:20:20.345Z,12.63
2023-01-24T16:22:48.570Z,15.60
2023-01-24T16:25:18.613Z,12.63
2023-01-24T16:27:47.157Z,13.17
2023-01-24T16:30:20.125Z,19.60
2023-01-24T16:32:50.340Z,13.93
2023-01-24T16:35:19.232Z,14.00
2023-01-24T16:37:47.802Z,13.40
2023-01-24T16:40:18.525Z,23.77
2023-01-24T16:42:48.724Z,17.00
2023-01-24T16:45:19.350Z,24.17
2023-01-24T16:47:49.637Z,26.80
2023-01-24T16:50:18.687Z,17.37
2023-01-24T16:52:47.122Z,16.97
2023-01-24T16:55:15.920Z,16.73
2023-01-24T16:57:44.195Z,14.90
2023-01-24T17:00:14.986Z,17.27
2023-01-24T17:02:44.214Z,16.17
2023-01-24T17:05:14.365Z,17.77
2023-01-24T17:07:42.706Z,16.20
2023-01-24T17:10:13.683Z,14.37
2023-01-24T17:12:42.247Z,13.67
2023-01-24T17:15:11.019Z,12.67
2023-01-24T17:17:39.901Z,14.40
2023-01-24T17:20:09.651Z,13.83
2023-01-24T17:22:39.648Z,14.63
2023-01-24T17:25:09.172Z,15.87
2023-01-24T17:27:37.321Z,21.53
2023-01-24T17:30:06.600Z,22.00
2023-01-24T17:32:39.036Z,15.23
2023-01-24T17:35:08.395Z,14.30
2023-01-24T17:37:36.869Z,13.83
2023-01-24T17:40:08.087Z,14.70
2023-01-24T17:42:36.595Z,15.27
2023-01-24T17:45:05.711Z,15.77
2023-01-24T17:47:33.900Z,12.37
2023-01-24T17:50:02.241Z,12.50
2023-01-24T17:52:32.016Z,13.90
2023-01-24T17:55:00.255Z,12.60
2023-01-24T17:57:30.156Z,11.40
2023-01-24T17:59:58.453Z,12.47
2023-01-24T18:02:26.731Z,12.13
2023-01-24T18:04:55.096Z,13.80
2023-01-24T18:07:23.356Z,14.20
2023-01-24T18:09:51.555Z,12.27
2023-01-24T18:12:19.742Z,13.07
2023-01-24T18:14:50.760Z,13.43
2023-01-24T18:17:19.216Z,13.13
2023-01-24T18:19:47.861Z,16.03
2023-01-24T18:22:16.075Z,13.50
2023-01-24T18:24:44.364Z,18.20
2023-01-24T18:27:12.736Z,13.60
2023-01-24T18:29:41.135Z,14.57
2023-01-24T18:32:10.857Z,15.10
2023-01-24T18:34:39.185Z,14.20
2023-01-24T18:37:07.516Z,12.87
2023-01-24T18:39:35.812Z,13.73
2023-01-24T18:42:06.985Z,15.33
2023-01-24T18:44:36.601Z,13.30
2023-01-24T18:47:04.943Z,11.20
2023-01-24T18:49:34.587Z,18.00
2023-01-24T18:52:02.724Z,11.87
2023-01-24T18:54:31.032Z,12.60
2023-01-24T18:57:00.794Z,12.63
2023-01-24T18:59:29.311Z,15.37
2023-01-24T19:01:57.859Z,15.53
2023-01-24T19:04:26.671Z,20.27
2023-01-24T19:06:57.218Z,18.70
2023-01-24T19:09:25.468Z,14.17
2023-01-24T19:11:53.711Z,16.77
2023-01-24T19:14:21.782Z,14.83
2023-01-24T19:16:50.245Z,10.90
2023-01-24T19:19:20.239Z,10.50
2023-01-24T19:21:50.828Z,10.13
2023-01-24T19:24:22.421Z,9.77
2023-01-24T19:26:51.501Z,11.83
2023-01-24T19:29:19.757Z,9.80
2023-01-24T19:31:48.039Z,10.57
2023-01-24T19:34:16.116Z,9.80
2023-01-24T19:36:44.365Z,14.13
2023-01-24T19:39:13.886Z,11.90
2023-01-24T19:41:43.700Z,10.00
2023-01-24T19:44:20.991Z,11.43
2023-01-24T19:46:51.251Z,10.50
2023-01-24T19:49:20.803Z,11.20
2023-01-24T19:51:51.857Z,11.53
2023-01-24T19:54:20.456Z,10.57
2023-01-24T19:56:51.691Z,9.23
2023-01-24T19:59:21.105Z,11.70
2023-01-24T20:01:51.368Z,10.20
2023-01-24T20:04:24.691Z,9.27
2023-01-24T20:06:54.909Z,10.27
2023-01-24T20:09:23.922Z,9.77
2023-01-24T20:11:54.591Z,9.90
2023-01-24T20:14:23.111Z,9.80
2023-01-24T20:16:52.192Z,9.80
2023-01-24T20:19:29.354Z,17.83
2023-01-24T20:21:59.801Z,10.27
2023-01-24T20:24:28.327Z,10.03
2023-01-24T20:26:58.106Z,9.80
2023-01-24T20:29:26.794Z,9.83
2023-01-24T20:31:56.162Z,9.13
2023-01-24T20:34:25.422Z,9.10
2023-01-24T20:36:54.058Z,10.43
2023-01-24T20:39:22.871Z,9.60
2023-01-24T20:41:51.879Z,9.47
2023-01-24T20:44:26.927Z,9.10
2023-01-24T20:46:56.637Z,8.87
2023-01-24T20:49:25.515Z,9.33
2023-01-24T20:51:54.056Z,8.73
2023-01-24T20:54:22.638Z,9.67
2023-01-24T20:56:56.559Z,9.00
2023-01-24T20:59:26.695Z,12.23
2023-01-24T21:01:55.052Z,11.03
2023-01-24T21:04:24.302Z,8.10
2023-01-24T21:06:52.647Z,9.27
2023-01-24T21:09:22.359Z,9.13
2023-01-24T21:11:51.240Z,9.80
2023-01-24T21:14:22.771Z,9.07
2023-01-24T21:16:53.297Z,8.67
2023-01-24T21:19:23.390Z,8.10
2023-01-24T21:21:51.629Z,10.33
2023-01-24T21:24:32.880Z,9.53
2023-01-24T21:27:02.288Z,8.23
2023-01-24T21:29:30.865Z,8.10
2023-01-24T21:32:01.253Z,8.60
2023-01-24T21:34:29.757Z,8.30
2023-01-24T21:36:58.146Z,8.20
2023-01-24T21:39:27.238Z,8.00
2023-01-24T21:42:00.639Z,8.37
2023-01-24T21:44:32.229Z,9.20
2023-01-24T21:47:02.375Z,8.83
2023-01-24T21:49:31.387Z,8.80
2023-01-24T21:52:01.634Z,9.03
2023-01-24T21:54:32.186Z,9.60
2023-01-24T21:57:34.899Z,9.60
2023-01-24T22:00:06.040Z,8.13
2023-01-24T22:02:36.215Z,8.40
2023-01-24T22:05:04.921Z,9.13
2023-01-24T22:07:33.784Z,7.93
2023-01-24T22:10:02.385Z,8.90
2023-01-24T22:12:32.260Z,7.03
2023-01-24T22:15:00.735Z,7.90
2023-01-24T22:17:29.292Z,6.17
2023-01-24T22:20:00.163Z,7.43
2023-01-24T22:22:43.613Z,6.40
2023-01-24T22:25:19.885Z,6.47
2023-01-24T22:27:48.762Z,6.87
2023-01-24T22:30:19.345Z,6.53
2023-01-24T22:32:48.322Z,7.40
2023-01-24T22:35:19.813Z,8.23
2023-01-24T22:37:50.734Z,7.53
2023-01-24T22:40:20.985Z,6.87
2023-01-24T22:42:50.403Z,7.23
2023-01-24T22:45:18.618Z,8.77
2023-01-24T22:47:46.760Z,7.47
2023-01-24T22:50:14.826Z,7.43
2023-01-24T22:52:44.374Z,8.17
2023-01-24T22:55:12.666Z,7.90
2023-01-24T22:57:40.768Z,7.80
2023-01-24T23:00:11.718Z,7.20
2023-01-24T23:02:40.062Z,8.03
2023-01-24T23:05:09.189Z,7.40
2023-01-24T23:07:37.657Z,7.40
2023-01-24T23:10:08.165Z,7.03
2023-01-24T23:12:53.899Z,7.70
2023-01-24T23:15:39.560Z,7.07
2023-01-24T23:18:14.007Z,7.03
2023-01-24T23:20:59.694Z,8.23
2023-01-24T23:23:27.836Z,8.00
2023-01-24T23:25:57.429Z,8.17
2023-01-24T23:28:29.594Z,8.87
2023-01-24T23:31:06.383Z,9.23
2023-01-24T23:33:37.879Z,8.60
2023-01-24T23:36:06.332Z,8.10
2023-01-24T23:38:34.797Z,7.90
2023-01-24T23:41:07.864Z,8.00
2023-01-24T23:43:36.679Z,7.07
2023-01-24T23:46:09.274Z,6.50
2023-01-24T23:48:37.405Z,8.07
2023-01-24T23:51:06.288Z,6.63
2023-01-24T23:53:34.373Z,7.23
2023-01-24T23:56:03.232Z,7.57
2023-01-24T23:58:32.885Z,7.80
